Time;durP1;ratioP1;P1;durP2;ratioP2;P2;SDS_P1;SDS_P2;PMS_P1;PMS_P2;Temp;Humidity;BMP_temperature;BMP_pressure;BME280_temperature;BME280_humidity;BME280_pressure;Samples;Min_cycle;Max_cycle;Signal;HPM_P1;HPM_P2
2021/04/28 00:00:42;;;;;;;32.47;11.27;;;;;;;2.31;53.98;99983.66;125791;1096;26586;-57
2021/04/28 00:03:18;;;;;;;32.10;11.23;;;;;;;2.31;53.88;99991.93;125819;1096;27238;-58
2021/04/28 00:05:47;;;;;;;27.83;9.60;;;;;;;2.29;54.14;99988.83;125551;1101;22731;-57
2021/04/28 00:08:17;;;;;;;31.00;9.87;;;;;;;2.25;54.25;99976.34;125595;1101;22771;-58
2021/04/28 00:10:46;;;;;;;26.63;9.07;;;;;;;2.22;54.32;99975.21;125732;1096;27154;-57
2021/04/28 00:13:19;;;;;;;25.37;9.30;;;;;;;2.20;54.31;99977.62;125785;1101;24558;-57
2021/04/28 00:15:51;;;;;;;25.77;8.23;;;;;;;2.15;54.56;99978.12;125817;1101;23651;-55
2021/04/28 00:18:21;;;;;;;29.40;9.43;;;;;;;2.10;54.74;99967.63;125852;1101;22810;-57
2021/04/28 00:20:52;;;;;;;23.15;8.13;;;;;;;2.07;54.74;99970.47;125828;1101;22889;-58
2021/04/28 00:23:21;;;;;;;26.03;7.97;;;;;;;2.05;54.81;99970.13;125870;1101;23151;-57
2021/04/28 00:25:51;;;;;;;25.48;8.83;;;;;;;2.01;54.45;99959.17;125732;1101;22770;-58
2021/04/28 00:28:22;;;;;;;25.10;7.75;;;;;;;1.98;54.66;99959.26;125886;1101;22813;-55
2021/04/28 00:30:51;;;;;;;23.23;8.03;;;;;;;1.94;54.75;99959.34;125683;1096;22800;-57
2021/04/28 00:33:21;;;;;;;25.78;9.63;;;;;;;1.88;54.85;99968.53;125661;1102;22734;-59
2021/04/28 00:35:50;;;;;;;27.93;9.03;;;;;;;1.85;54.98;99955.61;125741;1101;22884;-58
2021/04/28 00:38:19;;;;;;;29.97;10.07;;;;;;;1.80;55.12;99953.38;125727;1101;23183;-61
2021/04/28 00:40:53;;;;;;;32.27;9.93;;;;;;;1.71;55.07;99951.20;125896;1097;22740;-60
2021/04/28 00:43:22;;;;;;;;;;;;;;;1.66;55.36;99954.44;125852;1101;22738;-60
2021/04/28 00:45:52;;;;;;;26.07;8.97;;;;;;;1.57;55.45;99957.77;125925;1101;21671;-58
2021/04/28 00:48:21;;;;;;;34.13;10.20;;;;;;;1.53;55.50;99957.06;125758;1096;25983;-58
2021/04/28 00:50:51;;;;;;;31.13;10.03;;;;;;;1.50;55.78;99951.65;125740;1096;28055;-55
2021/04/28 00:53:23;;;;;;;29.97;11.17;;;;;;;1.46;56.01;99951.73;125690;1097;26184;-54
2021/04/28 00:55:53;;;;;;;32.73;10.87;;;;;;;1.42;55.77;99944.75;125590;1101;22872;-57
2021/04/28 00:58:24;;;;;;;26.50;9.30;;;;;;;1.40;55.80;99947.14;125870;1101;22870;-57
2021/04/28 01:00:55;;;;;;;28.20;9.47;;;;;;;1.38;55.87;99944.83;125821;1101;23357;-59
2021/04/28 01:03:27;;;;;;;28.97;10.20;;;;;;;1.39;56.03;99945.58;125779;1096;22747;-58
2021/04/28 01:06:00;;;;;;;28.00;10.93;;;;;;;1.40;56.05;99947.14;125778;1101;22761;-57
2021/04/28 01:08:29;;;;;;;28.47;10.13;;;;;;;1.40;55.96;99938.89;125794;1096;27139;-57
2021/04/28 01:11:00;;;;;;;28.83;9.83;;;;;;;1.40;56.11;99938.89;125677;1096;24569;-58
2021/04/28 01:13:29;;;;;;;;;;;;;;;1.37;55.92;99943.27;125900;1097;28292;-57
2021/04/28 01:15:58;;;;;;;26.97;9.50;;;;;;;1.37;56.18;99937.77;125710;1101;21578;-58
2021/04/28 01:18:28;;;;;;;32.20;10.95;;;;;;;1.36;56.24;99929.94;125837;1096;26488;-58
2021/04/28 01:20:57;;;;;;;28.27;9.27;;;;;;;1.35;56.45;99937.41;125825;1101;22867;-58
2021/04/28 01:23:27;;;;;;;25.37;9.20;;;;;;;1.32;56.23;99931.99;125818;1101;22793;-58
2021/04/28 01:25:57;;;;;;;29.20;10.00;;;;;;;1.32;56.38;99926.49;125819;1101;23045;-56
2021/04/28 01:28:28;;;;;;;29.18;10.88;;;;;;;1.31;56.33;99933.17;126023;1096;26884;-58
2021/04/28 01:31:02;;;;;;;30.63;10.13;;;;;;;1.29;56.52;99922.61;126170;1101;23492;-54
2021/04/28 01:33:36;;;;;;;27.87;9.27;;;;;;;1.28;56.51;99925.79;125875;1101;22757;-57
2021/04/28 01:36:08;;;;;;;24.60;8.97;;;;;;;1.28;56.59;99926.54;125884;1101;22740;-58
2021/04/28 01:38:42;;;;;;;27.70;10.55;;;;;;;1.27;56.92;99926.97;125922;1101;22744;-55
2021/04/28 01:41:12;;;;;;;35.50;10.85;;;;;;;1.24;56.80;99934.09;125908;1101;22742;-54
2021/04/28 01:43:43;;;;;;;29.20;9.73;;;;;;;1.23;56.66;99935.30;125938;1101;22733;-57
2021/04/28 01:46:13;;;;;;;27.13;9.07;;;;;;;1.22;56.84;99930.98;125753;1101;22794;-57
2021/04/28 01:48:45;;;;;;;25.30;9.73;;;;;;;1.22;56.95;99930.23;125816;1101;22728;-55
2021/04/28 01:51:15;;;;;;;26.37;9.67;;;;;;;1.22;56.95;99924.73;125797;1101;22738;-61
2021/04/28 01:53:45;;;;;;;29.20;9.60;;;;;;;1.22;56.79;99924.73;125929;1096;22751;-58
2021/04/28 01:56:16;;;;;;;28.65;10.55;;;;;;;1.21;56.98;99921.20;125924;1101;22733;-60
2021/04/28 01:58:46;;;;;;;26.83;9.40;;;;;;;1.21;56.93;99917.67;125904;1101;24585;-58
2021/04/28 02:01:16;;;;;;;33.03;9.30;;;;;;;1.20;56.85;99916.13;125790;1101;22738;-57
2021/04/28 02:03:46;;;;;;;28.70;10.70;;;;;;;1.19;57.07;99909.86;125965;1101;22929;-54
2021/04/28 02:06:17;;;;;;;34.65;10.50;;;;;;;1.18;56.97;99918.53;125888;1101;22958;-58
2021/04/28 02:08:45;;;;;;;;;;;;;;;1.17;57.18;99916.97;125833;1101;22809;-55
2021/04/28 02:11:15;;;;;;;32.20;10.20;;;;;;;1.14;57.21;99912.33;125929;1101;21471;-61
2021/04/28 02:13:45;;;;;;;;;;;;;;;1.12;57.13;99909.23;125974;1101;24558;-57
2021/04/28 02:16:15;;;;;;;37.37;12.20;;;;;;;1.11;57.20;99911.20;125866;1101;21613;-60
2021/04/28 02:18:45;;;;;;;30.20;10.70;;;;;;;1.10;57.40;99912.38;125815;1101;22741;-58
2021/04/28 02:21:14;;;;;;;35.63;12.90;;;;;;;1.09;57.39;99916.34;125936;1101;22806;-60
2021/04/28 02:23:44;;;;;;;37.15;12.60;;;;;;;1.07;57.34;99912.46;125756;1096;24433;-57
2021/04/28 02:26:14;;;;;;;33.07;11.97;;;;;;;1.06;57.42;99913.64;125870;1101;22790;-57
2021/04/28 02:28:43;;;;;;;33.90;12.88;;;;;;;1.05;57.83;99912.11;125785;1101;22738;-58
2021/04/28 02:31:13;;;;;;;33.33;11.80;;;;;;;1.04;57.48;99905.05;126429;1084;22757;-54
2021/04/28 02:33:42;;;;;;;31.93;12.80;;;;;;;1.02;57.48;99904.69;125775;1101;22732;-55
2021/04/28 02:36:12;;;;;;;34.13;12.73;;;;;;;0.99;57.54;99903.59;125818;1095;25847;-55
2021/04/28 02:38:47;;;;;;;34.03;12.80;;;;;;;0.97;57.69;99896.95;127544;1101;22762;-54
2021/04/28 02:41:17;;;;;;;31.50;11.47;;;;;;;0.95;58.12;99897.39;125738;1101;22913;-57
2021/04/28 02:43:47;;;;;;;29.43;11.70;;;;;;;0.93;58.13;99896.25;126153;1101;22897;-57
2021/04/28 02:46:17;;;;;;;45.13;18.88;;;;;;;0.92;58.10;99897.44;127950;1101;22903;-59
2021/04/28 02:48:49;;;;;;;40.55;16.03;;;;;;;0.89;58.18;99898.30;126098;1096;23029;-57
2021/04/28 02:51:19;;;;;;;41.70;15.27;;;;;;;0.88;58.30;99905.75;130056;1101;22504;-58
2021/04/28 02:53:49;;;;;;;37.53;13.45;;;;;;;0.88;58.36;99893.98;126449;1101;22731;-52
2021/04/28 02:56:20;;;;;;;37.85;14.53;;;;;;;0.87;58.35;99887.70;125816;1101;22727;-53
2021/04/28 02:58:50;;;;;;;35.57;15.07;;;;;;;0.88;58.43;99885.73;125955;1096;22755;-53
2021/04/28 03:01:21;;;;;;;32.98;12.10;;;;;;;0.86;58.55;99888.13;126042;1096;22802;-54
2021/04/28 03:03:52;;;;;;;33.17;12.13;;;;;;;0.83;58.74;99887.00;126040;1101;22724;-54
2021/04/28 03:06:22;;;;;;;34.77;11.67;;;;;;;0.81;58.74;99883.89;125844;1096;26447;-52
2021/04/28 03:08:52;;;;;;;32.83;11.17;;;;;;;0.83;58.57;99886.24;125833;1096;26344;-54
2021/04/28 03:11:23;;;;;;;31.93;11.73;;;;;;;0.81;58.66;99881.15;125828;1096;22725;-57
2021/04/28 03:13:52;;;;;;;38.27;13.53;;;;;;;0.80;58.82;99890.60;125881;1095;27638;-54
2021/04/28 03:16:22;;;;;;;31.50;11.10;;;;;;;0.78;58.71;99882.79;125893;1096;22741;-55
2021/04/28 03:18:53;;;;;;;33.73;13.20;;;;;;;0.80;58.97;99877.64;125864;1101;22732;-57
2021/04/28 03:21:25;;;;;;;50.47;21.37;;;;;;;0.78;58.93;99873.77;125877;1096;22728;-54
2021/04/28 03:23:55;;;;;;;69.00;30.10;;;;;;;0.77;59.12;99877.70;125965;1101;24550;-58
2021/04/28 03:26:24;;;;;;;95.05;45.83;;;;;;;0.76;59.11;99871.45;125854;1096;22756;-56
2021/04/28 03:28:54;;;;;;;70.13;34.20;;;;;;;0.76;59.33;99871.45;125776;1097;24389;-57
2021/04/28 03:31:24;;;;;;;56.10;27.00;;;;;;;0.75;59.19;99877.34;125925;1101;23306;-56
2021/04/28 03:33:53;;;;;;;41.57;16.37;;;;;;;0.72;59.49;99886.44;125976;1101;23660;-56
2021/04/28 03:36:22;;;;;;;34.85;13.95;;;;;;;0.70;59.46;99878.59;125901;1096;26292;-55
2021/04/28 03:38:51;;;;;;;35.43;12.40;;;;;;;0.69;59.40;99877.06;125847;1096;26508;-56
2021/04/28 03:41:23;;;;;;;35.40;14.30;;;;;;;0.71;59.57;99884.88;125903;1101;24431;-54
2021/04/28 03:43:52;;;;;;;30.53;11.87;;;;;;;0.70;59.57;99864.86;125937;1101;22945;-59
2021/04/28 03:46:22;;;;;;;32.73;11.53;;;;;;;0.71;59.84;99874.67;125825;1101;22897;-54
2021/04/28 03:48:52;;;;;;;29.50;11.47;;;;;;;0.72;59.84;99867.20;125883;1096;26207;-57
2021/04/28 03:51:22;;;;;;;30.23;11.37;;;;;;;0.71;59.97;99871.92;125773;1096;26200;-55
2021/04/28 03:53:51;;;;;;;33.03;12.93;;;;;;;0.71;59.97;99868.39;125832;1096;28385;-54
2021/04/28 03:56:20;;;;;;;30.43;11.57;;;;;;;0.72;60.07;99864.46;125837;1096;26296;-54
2021/04/28 03:58:50;;;;;;;30.77;11.67;;;;;;;0.72;59.80;99872.70;125797;1096;22752;-55
2021/04/28 04:01:19;;;;;;;32.53;12.37;;;;;;;0.73;59.76;99866.78;125870;1096;22907;-55
2021/04/28 04:03:49;;;;;;;34.40;12.30;;;;;;;0.75;60.20;99863.61;125768;1096;24432;-54
2021/04/28 04:06:19;;;;;;;32.43;11.90;;;;;;;0.76;60.36;99876.16;125730;1096;25861;-57
2021/04/28 04:08:48;;;;;;;31.65;12.75;;;;;;;0.77;60.12;99869.45;125794;1101;22904;-66
2021/04/28 04:11:17;;;;;;;32.07;11.60;;;;;;;0.83;60.24;99872.50;125952;1096;22787;-54
2021/04/28 04:13:46;;;;;;;30.43;11.63;;;;;;;0.85;60.40;99878.35;125794;1101;22913;-55
2021/04/28 04:16:16;;;;;;;32.87;13.03;;;;;;;0.89;60.43;99868.06;125750;1101;22793;-57
2021/04/28 04:18:47;;;;;;;34.43;12.15;;;;;;;0.95;60.76;99871.87;125805;1101;22756;-55
2021/04/28 04:21:16;;;;;;;38.50;12.67;;;;;;;1.03;60.71;99878.77;125751;1096;22744;-56
2021/04/28 04:23:45;;;;;;;32.20;11.70;;;;;;;1.09;60.62;99877.08;125733;1096;27677;-55
2021/04/28 04:26:15;;;;;;;36.17;13.73;;;;;;;1.13;60.43;99864.81;125798;1096;24694;-57
2021/04/28 04:28:44;;;;;;;33.03;11.83;;;;;;;1.20;60.80;99870.15;125764;1096;27145;-56
2021/04/28 04:31:14;;;;;;;28.90;11.37;;;;;;;1.26;60.45;99868.45;125772;1096;27303;-59
2021/04/28 04:33:43;;;;;;;35.83;12.90;;;;;;;1.33;60.54;99867.52;126051;1101;22762;-59
2021/04/28 04:36:13;;;;;;;34.60;11.20;;;;;;;1.41;60.40;99874.42;125824;1101;24567;-59
2021/04/28 04:38:43;;;;;;;29.58;11.83;;;;;;;1.47;60.67;99867.99;125889;1101;22734;-60
2021/04/28 04:41:13;;;;;;;29.20;12.20;;;;;;;1.53;60.58;99869.03;125966;1101;24527;-59
2021/04/28 04:43:42;;;;;;;35.03;11.93;;;;;;;1.61;60.60;99872.42;125848;1101;22786;-59
2021/04/28 04:46:12;;;;;;;29.20;11.07;;;;;;;1.71;60.60;99873.38;125905;1101;22727;-60
2021/04/28 04:48:41;;;;;;;31.55;12.53;;;;;;;1.80;60.75;99874.32;125770;1096;22747;-60
2021/04/28 04:51:10;;;;;;;30.60;12.05;;;;;;;1.90;60.46;99873.32;125896;1101;22734;-60
2021/04/28 04:53:40;;;;;;;31.20;12.60;;;;;;;2.00;60.37;99875.05;125806;1101;22864;-58
2021/04/28 04:56:10;;;;;;;32.73;12.63;;;;;;;2.11;60.74;99880.30;125820;1101;22834;-60
2021/04/28 04:58:40;;;;;;;28.90;11.10;;;;;;;2.23;60.16;99872.12;125784;1101;23454;-60
2021/04/28 05:01:10;;;;;;;35.43;13.30;;;;;;;2.34;60.37;99878.11;125674;1095;25883;-59
2021/04/28 05:03:39;;;;;;;28.20;11.60;;;;;;;2.46;60.39;99877.41;125426;1096;22758;-60
2021/04/28 05:06:08;;;;;;;30.00;11.47;;;;;;;2.58;60.46;99877.91;125600;1095;25800;-60
2021/04/28 05:08:38;;;;;;;33.57;12.97;;;;;;;2.68;60.02;99877.63;125775;1097;22755;-59
2021/04/28 05:11:07;;;;;;;30.13;13.67;;;;;;;2.80;60.26;99881.64;125723;1101;22735;-59
2021/04/28 05:13:36;;;;;;;36.43;12.17;;;;;;;2.91;60.00;99877.41;125746;1096;25966;-59
2021/04/28 05:16:06;;;;;;;32.87;11.60;;;;;;;3.01;59.80;99881.06;125889;1101;22752;-59
2021/04/28 05:18:35;;;;;;;26.30;10.80;;;;;;;3.11;59.84;99872.49;125779;1101;22829;-60
2021/04/28 05:21:05;;;;;;;29.93;11.37;;;;;;;3.22;59.55;99874.95;125786;1101;22899;-59
2021/04/28 05:23:35;;;;;;;29.25;11.28;;;;;;;3.36;59.56;99882.03;125779;1101;22900;-59
2021/04/28 05:26:04;;;;;;;37.03;15.70;;;;;;;3.47;59.62;99879.73;125748;1096;22970;-59
2021/04/28 05:28:33;;;;;;;63.23;29.80;;;;;;;3.57;59.66;99879.42;125809;1101;22825;-60
2021/04/28 05:31:02;;;;;;;49.55;22.90;;;;;;;3.67;59.25;99881.08;125798;1101;22816;-59
2021/04/28 05:33:32;;;;;;;36.70;15.20;;;;;;;3.79;59.00;99876.77;125732;1101;22748;-59
2021/04/28 05:36:01;;;;;;;32.17;12.10;;;;;;;3.88;58.67;99883.19;125986;1101;22758;-60
2021/04/28 05:38:31;;;;;;;36.10;13.07;;;;;;;3.97;59.00;99874.99;125803;1101;22738;-60
2021/04/28 05:41:00;;;;;;;31.25;12.55;;;;;;;4.05;58.76;99881.86;125904;1101;22907;-60
2021/04/28 05:43:29;;;;;;;27.87;11.63;;;;;;;4.14;58.75;99877.66;125781;1096;22731;-60
2021/04/28 05:46:00;;;;;;;29.03;11.73;;;;;;;4.23;58.61;99880.49;125809;1101;22760;-60
2021/04/28 05:48:29;;;;;;;34.47;11.93;;;;;;;4.30;58.20;99877.51;125935;1101;22740;-60
2021/04/28 05:50:59;;;;;;;35.78;13.60;;;;;;;4.38;58.21;99876.05;125892;1101;23001;-59
2021/04/28 05:53:28;;;;;;;30.80;13.00;;;;;;;4.45;58.18;99878.59;125834;1101;22844;-60
2021/04/28 05:56:03;;;;;;;36.13;16.30;;;;;;;4.53;58.32;99871.59;125808;1101;22779;-61
2021/04/28 05:58:33;;;;;;;44.23;17.57;;;;;;;4.59;57.98;99865.03;126104;1101;22900;-62
2021/04/28 06:01:02;;;;;;;46.63;19.73;;;;;;;4.67;57.85;99866.35;125974;1101;22738;-61
2021/04/28 06:03:32;;;;;;;34.60;13.93;;;;;;;4.74;57.62;99862.55;125897;1101;22776;-60
2021/04/28 06:06:01;;;;;;;32.03;13.43;;;;;;;4.82;57.95;99861.85;125872;1101;22709;-60
2021/04/28 06:08:30;;;;;;;35.43;14.83;;;;;;;4.90;57.86;99859.63;125764;1101;22737;-60
2021/04/28 06:11:00;;;;;;;38.70;14.85;;;;;;;4.99;57.80;99864.45;125843;1101;22724;-60
2021/04/28 06:13:29;;;;;;;39.37;14.80;;;;;;;5.05;57.27;99866.17;125994;1096;22810;-60
2021/04/28 06:15:59;;;;;;;32.93;13.30;;;;;;;5.15;57.45;99861.48;125746;1095;27192;-60
2021/04/28 06:18:29;;;;;;;39.85;13.83;;;;;;;5.24;57.51;99853.22;125947;1101;22787;-59
2021/04/28 06:20:58;;;;;;;31.70;11.70;;;;;;;5.33;57.46;99854.06;125743;1095;25858;-60
2021/04/28 06:23:27;;;;;;;34.90;11.50;;;;;;;5.42;57.15;99851.33;125832;1096;22752;-58
2021/04/28 06:25:57;;;;;;;30.03;12.73;;;;;;;5.53;57.40;99854.47;125801;1096;26250;-60
2021/04/28 06:28:26;;;;;;;50.73;17.50;;;;;;;5.64;56.97;99841.00;125782;1101;24416;-60
2021/04/28 06:30:56;;;;;;;43.30;18.57;;;;;;;5.78;57.21;99853.50;125792;1101;23230;-59
2021/04/28 06:33:25;;;;;;;36.78;14.90;;;;;;;5.89;56.93;99851.13;126190;1096;27447;-66
2021/04/28 06:35:55;;;;;;;30.57;13.30;;;;;;;6.01;56.79;99850.23;126028;1095;25848;-60
2021/04/28 06:38:25;;;;;;;34.25;13.73;;;;;;;6.13;57.20;99846.56;125888;1101;23388;-60
2021/04/28 06:40:55;;;;;;;36.07;15.47;;;;;;;6.22;56.58;99848.59;125868;1101;22749;-60
2021/04/28 06:43:24;;;;;;;35.75;15.30;;;;;;;6.32;56.36;99850.93;125867;1097;22724;-60
2021/04/28 06:45:54;;;;;;;37.10;13.95;;;;;;;6.40;55.77;99838.30;125836;1095;26647;-61
2021/04/28 06:48:24;;;;;;;33.38;12.73;;;;;;;6.47;55.86;99840.02;125850;1095;22897;-60
2021/04/28 06:50:53;;;;;;;32.30;13.35;;;;;;;6.54;55.49;99839.69;125920;1101;22837;-61
2021/04/28 06:53:23;;;;;;;33.40;12.57;;;;;;;6.61;55.32;99841.39;125820;1096;27299;-61
2021/04/28 06:55:52;;;;;;;31.43;12.95;;;;;;;6.67;55.21;99840.33;126119;1101;22770;-61
2021/04/28 06:58:22;;;;;;;28.93;12.78;;;;;;;6.75;54.80;99841.55;125963;1101;22905;-61
2021/04/28 07:00:51;;;;;;;30.20;12.47;;;;;;;6.82;55.07;99840.48;125814;1095;22809;-62
2021/04/28 07:03:20;;;;;;;33.77;13.77;;;;;;;6.90;54.78;99842.48;125690;1096;22894;-61
2021/04/28 07:05:50;;;;;;;31.27;12.27;;;;;;;7.00;55.01;99840.45;125778;1101;25474;-61
2021/04/28 07:08:19;;;;;;;31.37;13.17;;;;;;;7.11;55.11;99840.77;125973;1096;26343;-63
2021/04/28 07:10:48;;;;;;;34.80;12.87;;;;;;;7.21;54.81;99836.73;125759;1101;22974;-60
2021/04/28 07:13:18;;;;;;;30.65;12.50;;;;;;;7.31;54.95;99830.70;125761;1101;22838;-60
2021/04/28 07:15:47;;;;;;;30.13;12.58;;;;;;;7.44;54.31;99835.28;125896;1101;22752;-61
2021/04/28 07:18:18;;;;;;;34.57;11.03;;;;;;;7.52;54.54;99830.94;125892;1101;22761;-61
2021/04/28 07:20:48;;;;;;;34.00;13.60;;;;;;;7.69;54.17;99832.12;125893;1101;22759;-61
2021/04/28 07:23:18;;;;;;;32.40;13.68;;;;;;;7.84;53.91;99824.65;125922;1101;22769;-61
2021/04/28 07:25:47;;;;;;;30.05;11.38;;;;;;;7.97;54.00;99827.96;125807;1101;25536;-61
2021/04/28 07:28:17;;;;;;;32.95;13.95;;;;;;;8.08;53.74;99822.66;126073;1101;22742;-60
2021/04/28 07:30:49;;;;;;;32.20;12.45;;;;;;;8.19;53.61;99825.70;125796;1095;27656;-62
2021/04/28 07:33:19;;;;;;;32.20;11.53;;;;;;;8.32;53.15;99823.45;125900;1101;22786;-61
2021/04/28 07:35:49;;;;;;;33.13;13.17;;;;;;;8.48;53.03;99822.28;126055;1101;22749;-62
2021/04/28 07:38:18;;;;;;;42.13;15.03;;;;;;;8.67;53.20;99815.34;125930;1101;22861;-61
2021/04/28 07:40:48;;;;;;;40.95;15.85;;;;;;;8.83;52.89;99815.66;125797;1101;22749;-61
2021/04/28 07:43:17;;;;;;;31.65;12.40;;;;;;;9.00;52.30;99823.55;125878;1096;26229;-61
2021/04/28 07:45:47;;;;;;;38.30;14.70;;;;;;;9.16;52.21;99820.30;125772;1096;26031;-61
2021/04/28 07:48:16;;;;;;;40.40;16.37;;;;;;;9.29;52.38;99821.53;125783;1097;22754;-60
2021/04/28 07:50:46;;;;;;;35.70;13.85;;;;;;;9.50;52.09;99817.59;125867;1101;22903;-61
2021/04/28 07:53:16;;;;;;;34.80;12.60;;;;;;;9.62;51.47;99827.66;125794;1101;22731;-61
2021/04/28 07:55:46;;;;;;;29.30;12.17;;;;;;;9.71;51.25;99810.06;125810;1101;22713;-61
2021/04/28 07:58:17;;;;;;;32.97;12.00;;;;;;;9.76;50.41;99818.53;125882;1096;27437;-61
2021/04/28 08:00:46;;;;;;;31.85;12.13;;;;;;;9.75;50.89;99821.78;125804;1101;22807;-62
2021/04/28 08:03:15;;;;;;;31.05;12.95;;;;;;;9.79;50.93;99817.55;125732;1101;22756;-61
2021/04/28 08:05:44;;;;;;;28.73;12.07;;;;;;;9.88;50.98;99822.24;125673;1096;22813;-61
2021/04/28 08:08:14;;;;;;;30.53;12.33;;;;;;;9.97;50.99;99819.34;125718;1101;22747;-61
2021/04/28 08:10:44;;;;;;;31.10;12.35;;;;;;;10.10;50.83;99814.22;125775;1101;24835;-62
2021/04/28 08:13:13;;;;;;;30.78;11.10;;;;;;;10.20;50.49;99821.20;125831;1101;22738;-61
2021/04/28 08:15:45;;;;;;;31.10;12.17;;;;;;;10.28;50.38;99811.16;125743;1101;22735;-62
2021/04/28 08:18:14;;;;;;;31.47;10.93;;;;;;;10.39;49.97;99810.55;125827;1101;22761;-61
2021/04/28 08:20:45;;;;;;;25.80;11.37;;;;;;;10.46;50.19;99808.13;125683;1101;22731;-61
2021/04/28 08:23:13;;;;;;;;;;;;;;;10.55;50.42;99807.96;125711;1101;22810;-61
2021/04/28 08:25:43;;;;;;;23.07;10.43;;;;;;;10.64;49.77;99797.91;125870;1101;21465;-62
2021/04/28 08:28:13;;;;;;;25.20;9.95;;;;;;;10.72;49.53;99801.83;126049;1102;22787;-62
2021/04/28 08:30:43;;;;;;;27.38;9.85;;;;;;;10.84;49.41;99792.31;126405;1101;22804;-63
2021/04/28 08:33:13;;;;;;;24.43;9.50;;;;;;;10.92;49.58;99787.83;126090;1101;22728;-61
2021/04/28 08:35:43;;;;;;;25.95;11.40;;;;;;;11.02;49.41;99792.76;125860;1095;28444;-61
2021/04/28 08:38:12;;;;;;;30.10;10.63;;;;;;;11.09;49.41;99791.55;125940;1101;22987;-65
2021/04/28 08:40:42;;;;;;;26.27;9.77;;;;;;;11.18;49.17;99791.38;125797;1101;23016;-61
2021/04/28 08:43:13;;;;;;;24.43;10.23;;;;;;;11.29;49.18;99785.89;125837;1095;27664;-62
2021/04/28 08:45:43;;;;;;;28.40;10.03;;;;;;;11.39;48.89;99787.24;126158;1101;24282;-63
2021/04/28 08:48:14;;;;;;;27.58;9.60;;;;;;;11.50;48.82;99784.55;126182;1096;27261;-64
2021/04/28 08:50:44;;;;;;;25.73;8.20;;;;;;;11.62;48.43;99788.19;126370;1101;22907;-63
2021/04/28 08:53:15;;;;;;;23.60;8.15;;;;;;;11.71;48.35;99780.39;126277;1101;23630;-63
2021/04/28 08:55:46;;;;;;;24.37;10.57;;;;;;;11.81;48.72;99778.19;126565;1101;22872;-63
2021/04/28 08:58:16;;;;;;;20.30;7.97;;;;;;;11.95;47.85;99783.63;126375;1101;22901;-64
2021/04/28 09:00:45;;;;;;;24.05;8.83;;;;;;;12.08;48.01;99783.94;126553;1101;22821;-64
2021/04/28 09:03:19;;;;;;;23.50;8.20;;;;;;;12.21;48.03;99774.35;126367;1101;22712;-63
2021/04/28 09:05:49;;;;;;;21.80;7.95;;;;;;;12.34;47.75;99774.65;126455;1101;22958;-65
2021/04/28 09:08:18;;;;;;;23.80;9.18;;;;;;;12.44;47.52;99773.16;126443;1096;27167;-62
2021/04/28 09:10:49;;;;;;;23.23;8.80;;;;;;;12.53;47.63;99768.13;125969;1101;23469;-61
2021/04/28 09:13:19;;;;;;;23.57;9.43;;;;;;;12.64;47.42;99767.40;125787;1101;22903;-61
2021/04/28 09:15:50;;;;;;;18.15;6.63;;;;;;;12.75;46.48;99762.58;125857;1095;26098;-63
2021/04/28 09:18:18;;;;;;;;;;;;;;;12.88;46.53;99757.27;125778;1101;22863;-62
2021/04/28 09:20:51;;;;;;;23.00;7.30;;;;;;;12.98;46.41;99752.19;125804;1101;21523;-63
2021/04/28 09:23:27;;;;;;;21.83;7.27;;;;;;;13.03;45.95;99759.08;125891;1101;23360;-69
2021/04/28 09:25:58;;;;;;;21.77;8.73;;;;;;;13.05;45.87;99754.53;126564;1096;22802;-60
2021/04/28 09:28:32;;;;;;;21.33;7.73;;;;;;;13.09;45.46;99754.27;125928;1101;22728;-62
2021/04/28 09:31:16;;;;;;;21.47;8.97;;;;;;;13.09;45.87;99743.83;125879;1101;25496;-58
2021/04/28 09:33:55;;;;;;;22.00;8.67;;;;;;;13.15;46.11;99738.98;125789;1101;22866;-57
2021/04/28 09:36:33;;;;;;;20.87;8.87;;;;;;;13.24;45.65;99738.72;125710;1101;22848;-58
2021/04/28 09:39:06;;;;;;;22.70;7.73;;;;;;;13.33;45.72;99737.70;126003;1095;22745;-58
2021/04/28 09:41:43;;;;;;;26.30;9.33;;;;;;;13.39;45.55;99728.02;126244;1101;22806;-57
2021/04/28 09:44:29;;;;;;;24.50;8.05;;;;;;;13.48;45.59;99729.80;126150;1101;22810;-58
2021/04/28 09:47:05;;;;;;;16.40;5.87;;;;;;;13.57;44.34;99729.55;125991;1096;22756;-57
2021/04/28 09:50:00;;;;;;;13.70;4.23;;;;;;;13.67;43.96;99730.80;126153;1095;25966;-58
2021/04/28 09:52:44;;;;;;;13.07;3.97;;;;;;;13.80;43.98;99717.76;125970;1101;22751;-59
2021/04/28 09:55:16;;;;;;;13.60;4.40;;;;;;;13.93;44.09;99720.02;126138;1101;22731;-63
2021/04/28 09:57:51;;;;;;;11.80;3.10;;;;;;;14.07;43.79;99702.11;126022;1101;22834;-58
2021/04/28 10:00:32;;;;;;;16.75;4.90;;;;;;;14.26;43.30;99699.48;126307;1097;22722;-60
2021/04/28 10:03:09;;;;;;;19.47;4.03;;;;;;;14.37;42.88;99697.43;126463;1096;28324;-57
2021/04/28 10:05:47;;;;;;;11.43;3.00;;;;;;;14.48;42.72;99696.61;126147;1096;26452;-58
2021/04/28 10:08:31;;;;;;;17.30;4.90;;;;;;;14.58;42.01;99695.02;126292;1101;22702;-57
2021/04/28 10:11:04;;;;;;;14.97;4.13;;;;;;;14.68;41.90;99692.65;126172;1101;22732;-57
2021/04/28 10:13:39;;;;;;;13.75;3.35;;;;;;;14.77;41.30;99684.69;126209;1096;26378;-58
2021/04/28 10:16:23;;;;;;;11.40;3.23;;;;;;;14.81;41.40;99682.36;125885;1101;22787;-59
2021/04/28 10:19:03;;;;;;;13.50;3.70;;;;;;;14.83;41.51;99684.64;126180;1101;22901;-59
2021/04/28 10:21:59;;;;;;;18.45;4.85;;;;;;;14.87;40.95;99683.08;126083;1101;22848;-65
2021/04/28 10:24:43;;;;;;;11.85;3.85;;;;;;;14.92;41.68;99676.64;126401;1101;22883;-57
2021/04/28 10:27:23;;;;;;;13.15;3.50;;;;;;;14.99;42.05;99676.08;126091;1101;22725;-58
2021/04/28 10:30:00;;;;;;;11.50;3.60;;;;;;;15.09;41.25;99662.45;126144;1101;22751;-57
2021/04/28 10:32:34;;;;;;;14.15;3.40;;;;;;;15.18;40.52;99656.50;126306;1101;22738;-55
2021/04/28 10:35:17;;;;;;;13.20;3.40;;;;;;;15.24;40.42;99655.17;126057;1101;22853;-58
2021/04/28 10:37:51;;;;;;;13.57;4.00;;;;;;;15.33;40.19;99659.70;126145;1096;27629;-57
2021/04/28 10:40:29;;;;;;;12.40;3.40;;;;;;;15.37;40.34;99648.92;126321;1095;26280;-58
2021/04/28 10:43:22;;;;;;;16.00;3.38;;;;;;;15.35;39.23;99649.42;126361;1101;22761;-57
2021/04/28 10:45:56;;;;;;;15.25;3.20;;;;;;;15.37;38.61;99638.41;126244;1101;22773;-60
2021/04/28 10:48:41;;;;;;;17.53;3.67;;;;;;;15.44;38.80;99636.33;125931;1096;23490;-58
2021/04/28 10:51:35;;;;;;;14.55;3.18;;;;;;;15.49;39.50;99639.10;125982;1096;23470;-58
2021/04/28 10:54:27;;;;;;;16.43;3.83;;;;;;;15.56;38.81;99640.57;125915;1100;22836;-58
2021/04/28 10:57:16;;;;;;;16.15;3.90;;;;;;;15.57;38.27;99633.64;126085;1101;24458;-58
2021/04/28 11:00:31;;;;;;;11.30;2.55;;;;;;;15.61;38.91;99632.06;125788;1101;22758;-58
2021/04/28 11:03:36;;;;;;;14.05;3.35;;;;;;;15.73;38.58;99633.45;125838;1101;22759;-54
2021/04/28 11:06:49;;;;;;;16.25;3.35;;;;;;;15.83;37.51;99633.88;125834;1101;22817;-55
2021/04/28 11:09:31;;;;;;;10.25;3.05;;;;;;;15.86;37.71;99641.23;125860;1101;23033;-56
2021/04/28 11:12:34;;;;;;;12.10;2.80;;;;;;;15.90;37.96;99628.39;125809;1101;22799;-57
2021/04/28 11:15:07;;;;;;;20.60;4.55;;;;;;;15.91;37.10;99624.27;125832;1101;22897;-57
2021/04/28 11:17:39;;;;;;;15.40;5.20;;;;;;;15.98;37.26;99615.23;125787;1101;22981;-55
2021/04/28 11:20:23;;;;;;;18.80;4.30;;;;;;;16.09;37.16;99617.92;126031;1096;27154;-57
2021/04/28 11:22:53;;;;;;;10.30;2.60;;;;;;;16.23;36.90;99621.56;126026;1101;23372;-59
2021/04/28 11:25:22;;;;;;;13.88;3.00;;;;;;;16.30;36.23;99623.78;126068;1101;23535;-59
2021/04/28 11:28:10;;;;;;;8.97;3.23;;;;;;;16.34;36.42;99623.47;125919;1101;22728;-59
2021/04/28 11:30:53;;;;;;;14.20;3.13;;;;;;;16.35;35.77;99614.47;126324;1101;22763;-59
2021/04/28 11:33:34;;;;;;;10.30;2.47;;;;;;;16.34;36.40;99615.78;126203;1101;23657;-58
2021/04/28 11:36:17;;;;;;;14.60;3.43;;;;;;;16.38;36.08;99616.23;126294;1101;22816;-58
2021/04/28 11:38:51;;;;;;;11.90;3.20;;;;;;;16.40;35.88;99608.02;126278;1101;22812;-60
2021/04/28 11:41:29;;;;;;;12.35;2.70;;;;;;;16.43;35.89;99609.01;126173;1101;22750;-59